createdAt,value
2017-07-03T00:00:44.230Z,12.45
2017-07-03T00:01:53.117Z,12.39
2017-07-03T00:03:02.331Z,12.38
2017-07-03T00:04:11.315Z,12.42
2017-07-03T00:05:20.208Z,12.38
2017-07-03T00:06:29.423Z,12.37
2017-07-03T00:07:38.315Z,12.31
2017-07-03T00:08:47.855Z,12.35
2017-07-03T00:09:57.694Z,12.29
2017-07-03T00:11:06.906Z,12.24
2017-07-03T00:12:16.130Z,12.32
2017-07-03T00:13:25.344Z,12.27
2017-07-03T00:14:35.210Z,12.28
2017-07-03T00:15:44.905Z,12.27
2017-07-03T00:16:53.841Z,12.21
2017-07-03T00:18:03.051Z,12.27
2017-07-03T00:19:12.272Z,12.28
2017-07-03T00:20:21.157Z,12.28
2017-07-03T00:21:30.670Z,12.24
2017-07-03T00:22:39.878Z,12.16
2017-07-03T00:23:49.417Z,12.17
2017-07-03T00:24:58.313Z,12.21
2017-07-03T00:26:07.850Z,12.1
2017-07-03T00:27:16.735Z,12.09
2017-07-03T00:28:26.604Z,12.12
2017-07-03T00:29:36.144Z,12.02
2017-07-03T00:30:45.357Z,12.02
2017-07-03T00:31:54.572Z,12.01
2017-07-03T00:33:03.982Z,11.99
2017-07-03T00:34:12.870Z,11.9
2017-07-03T00:35:22.084Z,12.01
2017-07-03T00:36:30.980Z,11.98
2017-07-03T00:37:40.517Z,11.85
2017-07-03T00:38:49.557Z,11.91
2017-07-03T00:39:59.420Z,11.83
2017-07-03T00:41:08.635Z,11.94
2017-07-03T00:42:17.517Z,11.9
2017-07-03T00:43:27.063Z,11.9
2017-07-03T00:44:36.655Z,11.96
2017-07-03T00:45:46.192Z,11.91
2017-07-03T00:46:55.079Z,11.88
2017-07-03T00:48:04.291Z,11.88
2017-07-03T00:49:13.175Z,11.94
2017-07-03T00:50:22.386Z,11.9
2017-07-03T00:51:32.595Z,11.9
2017-07-03T00:52:41.480Z,11.79
2017-07-03T00:53:50.365Z,11.8
2017-07-03T00:54:59.911Z,11.75
2017-07-03T00:56:09.448Z,11.78
2017-07-03T00:57:18.987Z,11.76
2017-07-03T00:58:27.886Z,11.82
2017-07-03T00:59:37.101Z,11.83
2017-07-03T01:00:45.985Z,11.79
2017-07-03T01:01:55.196Z,11.83
2017-07-03T01:03:04.427Z,11.76
2017-07-03T01:04:13.330Z,11.72
2017-07-03T01:05:22.873Z,11.69
2017-07-03T01:06:32.087Z,11.78
2017-07-03T01:07:41.126Z,11.69
2017-07-03T01:08:50.340Z,11.65
2017-07-03T01:09:59.879Z,11.78
2017-07-03T01:11:09.098Z,11.78
2017-07-03T01:12:17.986Z,11.78
2017-07-03T01:13:27.827Z,11.73
2017-07-03T01:14:37.040Z,11.83
2017-07-03T01:15:46.254Z,11.65
2017-07-03T01:16:55.466Z,11.65
2017-07-03T01:18:05.328Z,11.67
2017-07-03T01:19:15.938Z,11.65
2017-07-03T01:20:25.805Z,11.61
2017-07-03T01:21:35.018Z,11.7
2017-07-03T01:22:44.229Z,11.54
2017-07-03T01:23:53.119Z,11.61
2017-07-03T01:25:02.484Z,11.57
2017-07-03T01:26:11.703Z,11.58
2017-07-03T01:27:20.915Z,11.55
2017-07-03T01:28:29.801Z,11.51
2017-07-03T01:29:39.011Z,11.51
2017-07-03T01:30:48.877Z,11.52
2017-07-03T01:31:58.086Z,11.54
2017-07-03T01:33:06.975Z,11.54
2017-07-03T01:34:15.858Z,11.51
2017-07-03T01:35:25.078Z,11.54
2017-07-03T01:36:34.115Z,11.47
2017-07-03T01:37:43.649Z,11.47
2017-07-03T01:38:52.862Z,11.43
2017-07-03T01:40:02.726Z,11.46
2017-07-03T01:41:11.941Z,11.47
2017-07-03T01:42:21.785Z,11.54
2017-07-03T01:43:30.999Z,11.51
2017-07-03T01:44:40.212Z,11.49
2017-07-03T01:45:49.751Z,11.49
2017-07-03T01:46:58.964Z,11.46
2017-07-03T01:48:08.349Z,11.44
2017-07-03T01:49:17.896Z,11.44
2017-07-03T01:50:27.766Z,11.42
2017-07-03T01:51:37.312Z,11.36
2017-07-03T01:52:46.846Z,11.43
2017-07-03T01:53:56.857Z,11.42
2017-07-03T01:55:06.394Z,11.4
2017-07-03T01:56:15.276Z,11.28
2017-07-03T01:57:24.506Z,11.32
2017-07-03T01:58:33.715Z,11.32
2017-07-03T01:59:42.957Z,11.37
2017-07-03T02:00:52.169Z,11.37
2017-07-03T02:02:01.059Z,11.33
2017-07-03T02:03:10.271Z,11.39
2017-07-03T02:04:20.153Z,11.28
2017-07-03T02:05:29.941Z,11.25
2017-07-03T02:06:39.155Z,11.22
2017-07-03T02:07:48.365Z,11.21
2017-07-03T02:08:57.253Z,11.21
2017-07-03T02:10:06.465Z,11.25
2017-07-03T02:11:15.683Z,11.18
2017-07-03T02:12:24.893Z,11.21
2017-07-03T02:13:34.106Z,11.17
2017-07-03T02:14:43.640Z,11.19
2017-07-03T02:15:52.854Z,11.22
2017-07-03T02:17:02.711Z,11.07
2017-07-03T02:18:11.651Z,11.09
2017-07-03T02:19:21.184Z,11.14
2017-07-03T02:20:30.727Z,11.07
2017-07-03T02:21:39.609Z,11.11
2017-07-03T02:22:48.502Z,11.15
2017-07-03T02:23:57.387Z,11.25
2017-07-03T02:25:06.277Z,11.14
2017-07-03T02:26:15.164Z,11.18
2017-07-03T02:27:24.382Z,11.15
2017-07-03T02:28:34.866Z,11.19
2017-07-03T02:29:44.403Z,11.21
2017-07-03T02:30:53.618Z,11.19
2017-07-03T02:32:02.553Z,11.19
2017-07-03T02:33:11.436Z,11.09
2017-07-03T02:34:20.703Z,11.14
2017-07-03T02:35:29.923Z,11.14
2017-07-03T02:36:39.138Z,11.04
2017-07-03T02:37:48.023Z,11.06
2017-07-03T02:38:57.890Z,11.18
2017-07-03T02:40:06.928Z,11.14
2017-07-03T02:41:15.869Z,11
2017-07-03T02:42:25.077Z,11.07
2017-07-03T02:43:33.967Z,11.02
2017-07-03T02:44:42.857Z,11.07
2017-07-03T02:45:52.218Z,11.02
2017-07-03T02:47:02.074Z,10.99
2017-07-03T02:48:11.293Z,11.09
2017-07-03T02:49:20.503Z,11.1
2017-07-03T02:50:30.370Z,11.09
2017-07-03T02:51:39.735Z,11.04
2017-07-03T02:52:48.950Z,11.03
2017-07-03T02:53:58.162Z,11.03
2017-07-03T02:55:07.375Z,11.03
2017-07-03T02:56:16.911Z,11
2017-07-03T02:57:26.928Z,10.92
2017-07-03T02:58:36.788Z,10.99
2017-07-03T02:59:46.003Z,10.97
2017-07-03T03:00:55.227Z,10.99
2017-07-03T03:02:04.113Z,10.96
2017-07-03T03:03:13.253Z,10.91
2017-07-03T03:04:22.793Z,10.92
2017-07-03T03:05:32.329Z,10.99
2017-07-03T03:06:41.872Z,10.89
2017-07-03T03:07:51.081Z,10.89
2017-07-03T03:09:00.603Z,10.99
2017-07-03T03:10:09.818Z,10.97
2017-07-03T03:11:19.678Z,10.97
2017-07-03T03:12:28.887Z,11.03
2017-07-03T03:13:38.107Z,11.07
2017-07-03T03:14:48.401Z,11.02
2017-07-03T03:15:57.616Z,11.04
2017-07-03T03:17:06.824Z,11.09
2017-07-03T03:18:16.370Z,11
2017-07-03T03:19:25.580Z,11.03
2017-07-03T03:20:34.842Z,11.11
2017-07-03T03:21:43.725Z,11.1
2017-07-03T03:22:52.607Z,11.03
2017-07-03T03:24:01.495Z,11.02
2017-07-03T03:25:10.382Z,11
2017-07-03T03:26:19.752Z,10.99
2017-07-03T03:27:28.643Z,10.88
2017-07-03T03:28:38.507Z,10.96
2017-07-03T03:29:47.719Z,10.91
2017-07-03T03:30:56.929Z,10.86
2017-07-03T03:32:05.872Z,10.91
2017-07-03T03:33:14.753Z,10.96
2017-07-03T03:34:23.643Z,10.92
2017-07-03T03:35:32.871Z,10.89
2017-07-03T03:36:41.753Z,10.91
2017-07-03T03:37:51.114Z,10.91
2017-07-03T03:39:00.329Z,10.84
2017-07-03T03:40:09.219Z,10.82
2017-07-03T03:41:18.429Z,10.81
2017-07-03T03:42:27.970Z,10.97
2017-07-03T03:43:37.659Z,10.94
2017-07-03T03:44:47.201Z,11.02
2017-07-03T03:45:56.749Z,11.02
2017-07-03T03:47:06.621Z,11.03
2017-07-03T03:48:16.155Z,11.02
2017-07-03T03:49:25.444Z,11.06
2017-07-03T03:50:34.978Z,10.96
2017-07-03T03:51:44.196Z,11.04
2017-07-03T03:52:53.079Z,10.99
2017-07-03T03:54:02.295Z,11
2017-07-03T03:55:11.553Z,10.99
2017-07-03T03:56:21.087Z,11
2017-07-03T03:57:30.307Z,11
2017-07-03T03:58:39.198Z,11.02
2017-07-03T03:59:49.070Z,11.04
2017-07-03T04:00:58.432Z,11.07
2017-07-03T04:02:07.647Z,11.07
2017-07-03T04:03:16.856Z,11.06
2017-07-03T04:04:26.074Z,10.99
2017-07-03T04:05:35.284Z,11.06
2017-07-03T04:06:44.644Z,11.15
2017-07-03T04:07:53.532Z,11.17
2017-07-03T04:09:03.069Z,11.18
2017-07-03T04:10:13.005Z,11.09
2017-07-03T04:11:21.893Z,11.21
2017-07-03T04:12:31.029Z,11.24
2017-07-03T04:13:40.243Z,11.15
2017-07-03T04:14:49.135Z,11.24
2017-07-03T04:15:58.017Z,11.19
2017-07-03T04:17:07.556Z,11.25
2017-07-03T04:18:17.016Z,11.24
2017-07-03T04:19:26.558Z,11.18
2017-07-03T04:20:35.776Z,11.28
2017-07-03T04:21:44.989Z,11.32
2017-07-03T04:22:54.197Z,11.36
2017-07-03T04:24:03.881Z,11.37
2017-07-03T04:25:13.094Z,11.37
2017-07-03T04:26:21.983Z,11.44
2017-07-03T04:27:30.864Z,11.36
2017-07-03T04:28:40.075Z,11.44
2017-07-03T04:29:49.215Z,11.49
2017-07-03T04:30:58.750Z,11.49
2017-07-03T04:32:07.638Z,11.52
2017-07-03T04:33:16.855Z,11.46
2017-07-03T04:34:26.074Z,11.52
2017-07-03T04:35:35.289Z,11.44
2017-07-03T04:36:44.174Z,11.54
2017-07-03T04:37:53.065Z,11.55
2017-07-03T04:39:02.279Z,11.46
2017-07-03T04:40:11.502Z,11.51
2017-07-03T04:41:20.864Z,11.58
2017-07-03T04:42:30.078Z,11.57
2017-07-03T04:43:39.292Z,11.54
2017-07-03T04:44:48.507Z,11.57
2017-07-03T04:45:57.718Z,11.62
2017-07-03T04:47:06.749Z,11.57
2017-07-03T04:48:16.287Z,11.62
2017-07-03T04:49:25.829Z,11.65
2017-07-03T04:50:35.369Z,11.58
2017-07-03T04:51:44.907Z,11.72
2017-07-03T04:52:54.126Z,11.76
2017-07-03T04:54:03.662Z,11.78
2017-07-03T04:55:13.203Z,11.79
2017-07-03T04:56:22.103Z,11.69
2017-07-03T04:57:30.990Z,11.69
2017-07-03T04:58:40.025Z,11.75
2017-07-03T04:59:49.242Z,11.78
2017-07-03T05:00:58.132Z,11.73
2017-07-03T05:02:07.014Z,11.82
2017-07-03T05:03:16.233Z,11.82
2017-07-03T05:04:25.818Z,11.82
2017-07-03T05:05:35.682Z,11.86
2017-07-03T05:06:44.577Z,11.86
2017-07-03T05:07:53.795Z,11.95
2017-07-03T05:09:03.332Z,11.91
2017-07-03T05:10:13.249Z,12.1
2017-07-03T05:11:22.460Z,12.09
2017-07-03T05:12:31.343Z,12.1
2017-07-03T05:13:40.230Z,12.19
2017-07-03T05:14:49.776Z,12.14
2017-07-03T05:15:59.414Z,12.27
2017-07-03T05:17:08.952Z,12.19
2017-07-03T05:18:18.168Z,12.23
2017-07-03T05:19:27.707Z,12.27
2017-07-03T05:20:36.937Z,12.29
2017-07-03T05:21:46.449Z,12.29
2017-07-03T05:22:55.660Z,12.31
2017-07-03T05:24:04.870Z,12.41
2017-07-03T05:25:14.415Z,12.39
2017-07-03T05:26:23.307Z,12.53
2017-07-03T05:27:32.192Z,12.5
2017-07-03T05:28:41.454Z,12.5
2017-07-03T05:29:51.318Z,12.56
2017-07-03T05:31:00.206Z,12.53
2017-07-03T05:32:09.467Z,12.57
2017-07-03T05:33:18.513Z,12.57
2017-07-03T05:34:28.048Z,12.62
2017-07-03T05:35:37.921Z,12.7
2017-07-03T05:36:47.135Z,12.77
2017-07-03T05:37:56.349Z,12.77
2017-07-03T05:39:06.040Z,12.74
2017-07-03T05:40:15.255Z,12.78
2017-07-03T05:41:24.143Z,12.85
2017-07-03T05:42:33.356Z,12.85
2017-07-03T05:43:42.245Z,12.85
2017-07-03T05:44:51.136Z,12.93
2017-07-03T05:46:00.021Z,12.95
2017-07-03T05:47:08.922Z,13.1
2017-07-03T05:48:18.139Z,13.03
2017-07-03T05:49:27.360Z,13.07
2017-07-03T05:50:36.579Z,13.01
2017-07-03T05:51:46.126Z,13.28
2017-07-03T05:52:55.007Z,13.28
2017-07-03T05:54:04.222Z,13.39
2017-07-03T05:55:13.437Z,13.36
2017-07-03T05:56:23.071Z,13.29
2017-07-03T05:57:32.288Z,13.36
2017-07-03T05:58:42.156Z,13.29
2017-07-03T05:59:52.027Z,13.33
2017-07-03T06:01:01.241Z,13.41
2017-07-03T06:02:10.458Z,13.44
2017-07-03T06:03:19.677Z,13.48
2017-07-03T06:04:28.896Z,13.49
2017-07-03T06:05:38.491Z,13.51
2017-07-03T06:06:48.036Z,13.66
2017-07-03T06:07:57.073Z,13.6
2017-07-03T06:09:06.285Z,13.67
2017-07-03T06:10:15.501Z,13.81
2017-07-03T06:11:24.390Z,13.78
2017-07-03T06:12:33.280Z,13.75
2017-07-03T06:13:42.654Z,13.85
2017-07-03T06:14:52.518Z,13.89
2017-07-03T06:16:01.733Z,13.92
2017-07-03T06:17:11.272Z,13.97
2017-07-03T06:18:20.487Z,13.97
2017-07-03T06:19:30.573Z,14.06
2017-07-03T06:20:39.466Z,14.06
2017-07-03T06:21:49.017Z,14.07
2017-07-03T06:22:58.553Z,14.06
2017-07-03T06:24:07.444Z,14.1
2017-07-03T06:25:16.755Z,14.09
2017-07-03T06:26:25.970Z,14.1
2017-07-03T06:27:34.858Z,14.14
2017-07-03T06:28:44.726Z,14.17
2017-07-03T06:29:54.270Z,14.25
2017-07-03T06:31:04.440Z,14.25
2017-07-03T06:32:13.662Z,14.36
2017-07-03T06:33:22.549Z,14.33
2017-07-03T06:34:31.781Z,14.46
2017-07-03T06:35:40.676Z,14.52
2017-07-03T06:36:50.092Z,14.47
2017-07-03T06:37:59.628Z,14.57
2017-07-03T06:39:09.169Z,14.58
2017-07-03T06:40:18.718Z,14.52
2017-07-03T06:41:27.614Z,14.55
2017-07-03T06:42:37.091Z,14.65
2017-07-03T06:43:46.631Z,14.68
2017-07-03T06:44:56.174Z,14.69
2017-07-03T06:46:05.386Z,14.75
2017-07-03T06:47:14.607Z,14.77
2017-07-03T06:48:23.926Z,14.83
2017-07-03T06:49:33.468Z,14.81
2017-07-03T06:50:42.358Z,14.83
2017-07-03T06:51:51.247Z,14.89
2017-07-03T06:53:00.791Z,14.8
2017-07-03T06:54:10.305Z,14.91
2017-07-03T06:55:20.509Z,14.94
2017-07-03T06:56:30.050Z,15.01
2017-07-03T06:57:38.948Z,15.07
2017-07-03T06:58:48.165Z,15.14
2017-07-03T06:59:58.515Z,15.23
2017-07-03T07:01:07.734Z,15.23
2017-07-03T07:02:16.623Z,15.36
2017-07-03T07:03:25.844Z,15.47
2017-07-03T07:04:35.079Z,15.5
2017-07-03T07:05:44.770Z,15.59
2017-07-03T07:06:53.663Z,15.62
2017-07-03T07:08:02.879Z,15.67
2017-07-03T07:09:12.112Z,15.65
2017-07-03T07:10:21.325Z,15.68
2017-07-03T07:11:30.317Z,15.75
2017-07-03T07:12:39.209Z,15.65
2017-07-03T07:13:48.428Z,15.82
2017-07-03T07:14:58.351Z,15.83
2017-07-03T07:16:07.236Z,15.76
2017-07-03T07:17:16.554Z,15.8
2017-07-03T07:18:26.422Z,15.87
2017-07-03T07:19:35.313Z,15.92
2017-07-03T07:20:44.855Z,15.86
2017-07-03T07:21:54.076Z,15.84
2017-07-03T07:23:03.441Z,15.89
2017-07-03T07:24:12.661Z,15.82
2017-07-03T07:25:21.879Z,15.83
2017-07-03T07:26:31.742Z,15.87
2017-07-03T07:27:40.960Z,15.89
2017-07-03T07:28:50.707Z,15.9
2017-07-03T07:29:59.925Z,15.94
2017-07-03T07:31:09.143Z,16
2017-07-03T07:32:18.038Z,15.96
2017-07-03T07:33:26.973Z,16.01
2017-07-03T07:34:36.289Z,16.01
2017-07-03T07:35:45.506Z,16.07
2017-07-03T07:36:54.728Z,16.09
2017-07-03T07:38:03.948Z,16.27
2017-07-03T07:39:13.810Z,16.33
2017-07-03T07:40:23.078Z,16.34
2017-07-03T07:41:32.291Z,16.41
2017-07-03T07:42:41.831Z,16.42
2017-07-03T07:43:51.049Z,16.46
2017-07-03T07:45:00.268Z,16.49
2017-07-03T07:46:09.218Z,16.45
2017-07-03T07:47:18.438Z,16.43
2017-07-03T07:48:27.990Z,16.56
2017-07-03T07:49:37.532Z,16.57
2017-07-03T07:50:46.753Z,16.64
2017-07-03T07:51:55.696Z,16.64
2017-07-03T07:53:04.593Z,16.67
2017-07-03T07:54:13.820Z,16.73
2017-07-03T07:55:23.365Z,16.82
2017-07-03T07:56:32.253Z,16.89
2017-07-03T07:57:41.150Z,16.96
2017-07-03T07:58:50.056Z,16.89
2017-07-03T07:59:59.274Z,16.91
2017-07-03T08:01:08.494Z,17
2017-07-03T08:02:17.383Z,17.08
2017-07-03T08:03:27.032Z,17.08
2017-07-03T08:04:36.254Z,17.11
2017-07-03T08:05:45.488Z,17.14
2017-07-03T08:06:54.383Z,17.14
2017-07-03T08:08:03.278Z,17.16
2017-07-03T08:09:13.351Z,17.08
2017-07-03T08:10:22.579Z,17.16
2017-07-03T08:11:31.481Z,17.15
2017-07-03T08:12:40.699Z,17.18
2017-07-03T08:13:49.923Z,17.16
2017-07-03T08:14:59.959Z,17.21
2017-07-03T08:16:08.850Z,17.16
2017-07-03T08:17:18.395Z,17.21
2017-07-03T08:18:28.262Z,17.31
2017-07-03T08:19:37.802Z,17.26
2017-07-03T08:20:47.600Z,17.28
2017-07-03T08:21:56.822Z,17.36
2017-07-03T08:23:06.040Z,17.4
2017-07-03T08:24:15.257Z,17.41
2017-07-03T08:25:24.799Z,17.41
2017-07-03T08:26:34.217Z,17.38
2017-07-03T08:27:43.115Z,17.41
2017-07-03T08:28:52.330Z,17.46
2017-07-03T08:30:01.221Z,17.49
2017-07-03T08:31:10.109Z,17.54
2017-07-03T08:32:19.152Z,17.63
2017-07-03T08:33:28.424Z,17.64
2017-07-03T08:34:38.293Z,17.75
2017-07-03T08:35:47.510Z,17.75
2017-07-03T08:36:56.401Z,17.74
2017-07-03T08:38:06.424Z,17.9
2017-07-03T08:39:15.653Z,17.84
2017-07-03T08:40:25.207Z,17.95
2017-07-03T08:41:34.100Z,17.89
2017-07-03T08:42:42.994Z,17.87
2017-07-03T08:43:52.638Z,17.93
2017-07-03T08:45:02.505Z,17.86
2017-07-03T08:46:11.400Z,17.86
2017-07-03T08:47:20.296Z,17.95
2017-07-03T08:48:29.846Z,17.96
2017-07-03T08:49:38.792Z,17.89
2017-07-03T08:50:48.344Z,17.96
2017-07-03T08:51:57.274Z,17.96
2017-07-03T08:53:06.501Z,17.97
2017-07-03T08:54:16.093Z,18
2017-07-03T08:55:26.053Z,18.05
2017-07-03T08:56:35.013Z,18.07
2017-07-03T08:57:44.296Z,18.05
2017-07-03T08:58:53.193Z,18.05
2017-07-03T09:00:02.752Z,18.11
2017-07-03T09:01:12.021Z,18.15
2017-07-03T09:02:21.249Z,18.17
2017-07-03T09:03:31.457Z,18.23
2017-07-03T09:04:40.681Z,18.14
2017-07-03T09:05:49.902Z,18.15
2017-07-03T09:06:59.643Z,18.32
2017-07-03T09:08:08.534Z,18.33
2017-07-03T09:09:17.758Z,18.29
2017-07-03T09:10:26.991Z,18.32
2017-07-03T09:11:35.887Z,18.44
2017-07-03T09:12:45.118Z,18.39
2017-07-03T09:13:54.675Z,18.35
2017-07-03T09:15:03.941Z,18.41
2017-07-03T09:16:13.161Z,18.44
2017-07-03T09:17:23.029Z,18.45
2017-07-03T09:18:32.827Z,18.6
2017-07-03T09:19:42.702Z,18.57
2017-07-03T09:20:52.243Z,18.55
2017-07-03T09:22:01.786Z,18.63
2017-07-03T09:23:11.002Z,18.6
2017-07-03T09:24:21.124Z,18.65
2017-07-03T09:25:30.023Z,18.55
2017-07-03T09:26:39.246Z,18.62
2017-07-03T09:27:48.194Z,18.6
2017-07-03T09:28:58.076Z,18.73
2017-07-03T09:30:07.347Z,18.78
2017-07-03T09:31:16.570Z,18.87
2017-07-03T09:32:25.462Z,18.85
2017-07-03T09:33:34.681Z,18.8
2017-07-03T09:34:44.554Z,18.81
2017-07-03T09:35:54.429Z,18.88
2017-07-03T09:37:03.327Z,18.88
2017-07-03T09:38:12.550Z,19.04
2017-07-03T09:39:21.444Z,18.98
2017-07-03T09:40:30.659Z,19.06
2017-07-03T09:41:39.751Z,19.06
2017-07-03T09:42:48.975Z,19.06
2017-07-03T09:43:58.199Z,19.02
2017-07-03T09:45:07.095Z,19.13
2017-07-03T09:46:15.989Z,19.16
2017-07-03T09:47:24.931Z,19.14
2017-07-03T09:48:34.481Z,19.19
2017-07-03T09:49:43.705Z,19.22
2017-07-03T09:50:52.922Z,19.22
2017-07-03T09:52:01.812Z,19.19
2017-07-03T09:53:11.280Z,19.28
2017-07-03T09:54:20.498Z,19.4
2017-07-03T09:55:29.718Z,19.44
2017-07-03T09:56:38.934Z,19.59
2017-07-03T09:57:48.152Z,19.61
2017-07-03T09:58:57.531Z,19.68
2017-07-03T10:00:07.075Z,19.66
2017-07-03T10:01:16.304Z,19.69
2017-07-03T10:02:25.200Z,19.69
2017-07-03T10:03:34.741Z,19.84
2017-07-03T10:04:44.012Z,19.88
2017-07-03T10:05:52.922Z,19.87
2017-07-03T10:07:01.815Z,19.88
2017-07-03T10:08:10.719Z,19.8
2017-07-03T10:09:19.621Z,19.92
2017-07-03T10:10:28.952Z,19.88
2017-07-03T10:11:38.168Z,19.99
2017-07-03T10:12:47.064Z,20.03
2017-07-03T10:13:56.607Z,19.86
2017-07-03T10:15:06.158Z,20.03
2017-07-03T10:16:15.777Z,19.94
2017-07-03T10:17:24.676Z,20.13
2017-07-03T10:18:33.896Z,20.03
2017-07-03T10:19:42.790Z,20.05
2017-07-03T10:20:52.666Z,20.2
2017-07-03T10:22:02.034Z,20.23
2017-07-03T10:23:10.925Z,20.28
2017-07-03T10:24:20.140Z,20.31
2017-07-03T10:25:29.691Z,20.32
2017-07-03T10:26:38.588Z,20.47
2017-07-03T10:27:47.910Z,20.62
2017-07-03T10:28:57.470Z,20.67
2017-07-03T10:30:06.689Z,20.64
2017-07-03T10:31:15.584Z,20.69
2017-07-03T10:32:24.478Z,20.67
2017-07-03T10:33:33.522Z,20.72
2017-07-03T10:34:42.418Z,20.58
2017-07-03T10:35:51.326Z,20.67
2017-07-03T10:37:00.548Z,20.7
2017-07-03T10:38:10.436Z,20.8
2017-07-03T10:39:20.384Z,20.72
2017-07-03T10:40:29.603Z,20.58
2017-07-03T10:41:38.820Z,20.57
2017-07-03T10:42:48.045Z,20.61
2017-07-03T10:43:57.269Z,20.73
2017-07-03T10:45:06.968Z,20.79
2017-07-03T10:46:15.861Z,20.84
2017-07-03T10:47:25.079Z,20.89
2017-07-03T10:48:34.303Z,20.88
2017-07-03T10:49:43.521Z,20.94
2017-07-03T10:50:53.318Z,20.94
2017-07-03T10:52:02.537Z,21.01
2017-07-03T10:53:11.759Z,20.92
2017-07-03T10:54:20.980Z,20.87
2017-07-03T10:55:30.526Z,20.88
2017-07-03T10:56:40.219Z,20.94
2017-07-03T10:57:49.448Z,20.98
2017-07-03T10:58:58.670Z,20.94
2017-07-03T11:00:07.561Z,20.95
2017-07-03T11:01:16.498Z,21.09
2017-07-03T11:02:25.819Z,21.07
2017-07-03T11:03:35.363Z,21.13
2017-07-03T11:04:44.999Z,21.03
2017-07-03T11:05:54.563Z,20.99
2017-07-03T11:07:03.802Z,20.85
2017-07-03T11:08:13.328Z,20.84
2017-07-03T11:09:22.232Z,20.92
2017-07-03T11:10:31.776Z,20.97
2017-07-03T11:11:40.674Z,21.24
2017-07-03T11:12:50.877Z,21.27
2017-07-03T11:14:00.581Z,21.52
2017-07-03T11:15:09.804Z,21.64
2017-07-03T11:16:18.697Z,21.61
2017-07-03T11:17:28.241Z,21.59
2017-07-03T11:18:37.463Z,21.77
2017-07-03T11:19:46.561Z,21.77
2017-07-03T11:20:55.781Z,21.8
2017-07-03T11:22:04.675Z,21.94
2017-07-03T11:23:13.573Z,21.8
2017-07-03T11:24:22.468Z,21.82
2017-07-03T11:25:32.342Z,21.94
2017-07-03T11:26:41.566Z,22.03
2017-07-03T11:27:50.784Z,21.88
2017-07-03T11:29:00.330Z,21.84
2017-07-03T11:30:09.920Z,21.72
2017-07-03T11:31:18.814Z,21.65
2017-07-03T11:32:28.037Z,21.69
2017-07-03T11:33:37.586Z,21.8
2017-07-03T11:34:47.462Z,21.77
2017-07-03T11:35:57.331Z,21.86
2017-07-03T11:37:06.230Z,21.83
2017-07-03T11:38:15.780Z,21.82
2017-07-03T11:39:25.004Z,21.86
2017-07-03T11:40:34.558Z,21.8
2017-07-03T11:41:43.783Z,21.92
2017-07-03T11:42:52.832Z,21.91
2017-07-03T11:44:01.727Z,21.98
2017-07-03T11:45:11.270Z,22
2017-07-03T11:46:20.487Z,22.07
2017-07-03T11:47:29.387Z,22.03
2017-07-03T11:48:38.808Z,22.06
2017-07-03T11:49:48.026Z,22.1
2017-07-03T11:50:57.251Z,22.06
2017-07-03T11:52:06.489Z,22.2
2017-07-03T11:53:16.101Z,22.39
2017-07-03T11:54:25.955Z,22.39
2017-07-03T11:55:35.174Z,22.43
2017-07-03T11:56:44.395Z,22.39
2017-07-03T11:57:53.614Z,22.42
2017-07-03T11:59:02.842Z,22.61
2017-07-03T12:00:12.275Z,22.55
2017-07-03T12:01:21.172Z,22.57
2017-07-03T12:02:30.069Z,22.57
2017-07-03T12:03:39.296Z,22.62
2017-07-03T12:04:48.529Z,22.85
2017-07-03T12:05:58.177Z,23.01
2017-07-03T12:07:07.401Z,23.09
2017-07-03T12:08:16.631Z,22.98
2017-07-03T12:09:25.531Z,22.75
2017-07-03T12:10:34.760Z,22.73
2017-07-03T12:11:44.936Z,22.57
2017-07-03T12:12:53.833Z,22.52
2017-07-03T12:14:02.733Z,22.67
2017-07-03T12:15:11.958Z,22.57
2017-07-03T12:16:21.184Z,22.68
2017-07-03T12:17:30.711Z,22.72
2017-07-03T12:18:39.613Z,22.67
2017-07-03T12:19:49.499Z,22.49
2017-07-03T12:20:59.045Z,22.31
2017-07-03T12:22:08.273Z,22.36
2017-07-03T12:23:17.281Z,22.58
2017-07-03T12:24:26.548Z,22.73
2017-07-03T12:25:35.783Z,22.83
2017-07-03T12:26:45.652Z,22.94
2017-07-03T12:27:55.208Z,22.98
2017-07-03T12:29:04.263Z,23.22
2017-07-03T12:30:13.493Z,23.2
2017-07-03T12:31:22.721Z,23.17
2017-07-03T12:32:32.597Z,23.22
2017-07-03T12:33:42.157Z,23.38
2017-07-03T12:34:52.188Z,23.48
2017-07-03T12:36:01.739Z,23.57
2017-07-03T12:37:10.969Z,23.7
2017-07-03T12:38:20.523Z,23.78
2017-07-03T12:39:30.079Z,23.84
2017-07-03T12:40:39.453Z,24.13
2017-07-03T12:41:48.682Z,24.2
2017-07-03T12:42:57.585Z,24.27
2017-07-03T12:44:06.816Z,24.13
2017-07-03T12:45:16.371Z,24.32
2017-07-03T12:46:25.904Z,24.18
2017-07-03T12:47:34.805Z,24.31
2017-07-03T12:48:44.039Z,24.34
2017-07-03T12:49:53.593Z,24.57
2017-07-03T12:51:03.147Z,24.78
2017-07-03T12:52:12.854Z,24.71
2017-07-03T12:53:21.758Z,24.73
2017-07-03T12:54:30.663Z,24.61
2017-07-03T12:55:39.895Z,24.4
2017-07-03T12:56:48.796Z,24.53
2017-07-03T12:57:58.353Z,24.64
2017-07-03T12:59:08.558Z,24.88
2017-07-03T13:00:17.793Z,24.9
2017-07-03T13:01:26.696Z,24.98
2017-07-03T13:02:35.615Z,24.76
2017-07-03T13:03:45.327Z,24.78
2017-07-03T13:04:54.886Z,24.43
2017-07-03T13:06:04.122Z,24.42
2017-07-03T13:07:13.032Z,24.28
2017-07-03T13:08:22.586Z,24.35
2017-07-03T13:09:31.641Z,24.45
2017-07-03T13:10:40.545Z,24.49
2017-07-03T13:11:50.099Z,24.65
2017-07-03T13:12:59.329Z,24.47
2017-07-03T13:14:08.234Z,24.31
2017-07-03T13:15:17.658Z,24.21
2017-07-03T13:16:26.564Z,24.16
2017-07-03T13:17:35.797Z,24.53
2017-07-03T13:18:45.027Z,24.71
2017-07-03T13:19:55.233Z,24.85
2017-07-03T13:21:04.564Z,24.78
2017-07-03T13:22:13.798Z,24.76
2017-07-03T13:23:23.038Z,24.83
2017-07-03T13:24:32.608Z,24.78
2017-07-03T13:25:41.508Z,24.73
2017-07-03T13:26:50.827Z,24.77
2017-07-03T13:28:00.062Z,24.62
2017-07-03T13:29:09.613Z,24.49
2017-07-03T13:30:18.843Z,24.46
2017-07-03T13:31:27.749Z,24.42
2017-07-03T13:32:36.803Z,24.53
2017-07-03T13:33:46.688Z,24.76
2017-07-03T13:34:55.922Z,24.95
2017-07-03T13:36:04.839Z,24.98
2017-07-03T13:37:13.754Z,24.85
2017-07-03T13:38:22.978Z,24.91
2017-07-03T13:39:32.874Z,25
2017-07-03T13:40:41.800Z,25.03
2017-07-03T13:41:50.715Z,24.88
2017-07-03T13:42:59.627Z,24.91
2017-07-03T13:44:08.955Z,24.77
2017-07-03T13:45:18.189Z,24.8
2017-07-03T13:46:27.419Z,24.76
2017-07-03T13:47:36.661Z,24.76
2017-07-03T13:48:45.896Z,24.65
2017-07-03T13:49:55.060Z,24.88
2017-07-03T13:51:04.305Z,24.85
2017-07-03T13:52:14.186Z,24.98
2017-07-03T13:53:23.427Z,25.13
2017-07-03T13:54:32.987Z,25.24
2017-07-03T13:55:43.011Z,25.08
2017-07-03T13:56:52.568Z,25.21
2017-07-03T13:58:01.483Z,25.28
2017-07-03T13:59:10.712Z,25.39
2017-07-03T14:00:19.957Z,25.39
2017-07-03T14:01:29.016Z,25.24
2017-07-03T14:02:37.926Z,25.05
2017-07-03T14:03:47.491Z,25.03
2017-07-03T14:04:56.755Z,24.88
2017-07-03T14:06:05.985Z,24.81
2017-07-03T14:07:15.420Z,24.88
2017-07-03T14:08:24.400Z,25.02
2017-07-03T14:09:33.660Z,24.95
2017-07-03T14:10:42.888Z,24.98
2017-07-03T14:11:51.789Z,24.96
2017-07-03T14:13:01.395Z,24.88
2017-07-03T14:14:10.301Z,24.87
2017-07-03T14:15:19.567Z,24.77
2017-07-03T14:16:29.444Z,24.77
2017-07-03T14:17:38.998Z,24.61
2017-07-03T14:18:48.649Z,24.62
2017-07-03T14:19:57.551Z,24.73
2017-07-03T14:21:07.103Z,24.88
2017-07-03T14:22:16.327Z,24.78
2017-07-03T14:23:25.235Z,24.78
2017-07-03T14:24:34.460Z,24.68
2017-07-03T14:25:43.366Z,24.69
2017-07-03T14:26:52.596Z,24.84
2017-07-03T14:28:02.151Z,24.76
2017-07-03T14:29:11.707Z,24.73
2017-07-03T14:30:21.582Z,24.65
2017-07-03T14:31:30.808Z,24.49
2017-07-03T14:32:40.031Z,24.4
2017-07-03T14:33:48.934Z,24.31
2017-07-03T14:34:58.166Z,24.31
2017-07-03T14:36:07.115Z,24.16
2017-07-03T14:37:16.346Z,24.22
2017-07-03T14:38:25.591Z,24.2
2017-07-03T14:39:34.492Z,24.21
2017-07-03T14:40:43.718Z,24.1
2017-07-03T14:41:53.335Z,24
2017-07-03T14:43:02.234Z,23.94
2017-07-03T14:44:11.464Z,23.73
2017-07-03T14:45:21.013Z,23.63
2017-07-03T14:46:29.921Z,23.53
2017-07-03T14:47:39.120Z,23.57
2017-07-03T14:48:48.350Z,23.48
2017-07-03T14:49:58.231Z,23.32
2017-07-03T14:51:07.125Z,23.25
2017-07-03T14:52:16.353Z,23.28
2017-07-03T14:53:25.915Z,23.31
2017-07-03T14:54:35.463Z,23.27
2017-07-03T14:55:45.017Z,23.22